sensor_id;sensor_type;location;lat;lon;timestamp;temperature;humidity
36652;DHT22;53334;51.976;20.144;2023-05-07T00:00:25;23.80;51.40
36652;DHT22;53334;51.976;20.144;2023-05-07T00:02:58;23.90;51.30
36652;DHT22;53334;51.976;20.144;2023-05-07T00:05:31;23.80;51.00
36652;DHT22;53334;51.976;20.144;2023-05-07T00:08:05;23.90;51.00
36652;DHT22;53334;51.976;20.144;2023-05-07T00:10:39;23.80;50.70
36652;DHT22;53334;51.976;20.144;2023-05-07T00:13:13;23.80;50.70
36652;DHT22;53334;51.976;20.144;2023-05-07T00:15:46;23.90;50.70
36652;DHT22;53334;51.976;20.144;2023-05-07T00:18:19;23.90;50.70
36652;DHT22;53334;51.976;20.144;2023-05-07T00:20:54;23.80;50.40
36652;DHT22;53334;51.976;20.144;2023-05-07T00:23:28;23.80;50.70
36652;DHT22;53334;51.976;20.144;2023-05-07T00:26:02;23.90;50.70
36652;DHT22;53334;51.976;20.144;2023-05-07T00:28:36;23.80;50.80
36652;DHT22;53334;51.976;20.144;2023-05-07T00:31:09;23.90;50.90
36652;DHT22;53334;51.976;20.144;2023-05-07T00:33:42;23.80;50.80
36652;DHT22;53334;51.976;20.144;2023-05-07T00:36:15;23.80;50.80
36652;DHT22;53334;51.976;20.144;2023-05-07T00:38:49;23.80;50.80
36652;DHT22;53334;51.976;20.144;2023-05-07T00:41:23;23.80;50.60
36652;DHT22;53334;51.976;20.144;2023-05-07T00:43:57;23.80;50.60
36652;DHT22;53334;51.976;20.144;2023-05-07T00:46:30;23.90;50.50
36652;DHT22;53334;51.976;20.144;2023-05-07T00:49:04;23.80;50.40
36652;DHT22;53334;51.976;20.144;2023-05-07T00:51:38;23.80;50.40
36652;DHT22;53334;51.976;20.144;2023-05-07T00:54:11;23.80;50.20
36652;DHT22;53334;51.976;20.144;2023-05-07T00:56:47;23.80;50.20
36652;DHT22;53334;51.976;20.144;2023-05-07T00:59:20;23.80;50.20
36652;DHT22;53334;51.976;20.144;2023-05-07T01:01:54;23.80;50.30
36652;DHT22;53334;51.976;20.144;2023-05-07T01:04:28;23.90;50.30
36652;DHT22;53334;51.976;20.144;2023-05-07T01:07:02;23.80;50.30
36652;DHT22;53334;51.976;20.144;2023-05-07T01:09:36;23.90;50.30
36652;DHT22;53334;51.976;20.144;2023-05-07T01:12:11;23.80;50.20
36652;DHT22;53334;51.976;20.144;2023-05-07T01:14:45;23.80;50.20
36652;DHT22;53334;51.976;20.144;2023-05-07T01:17:20;23.80;50.20
36652;DHT22;53334;51.976;20.144;2023-05-07T01:19:54;23.80;50.00
36652;DHT22;53334;51.976;20.144;2023-05-07T01:22:31;23.80;50.10
36652;DHT22;53334;51.976;20.144;2023-05-07T01:25:07;23.90;50.00
36652;DHT22;53334;51.976;20.144;2023-05-07T01:27:45;23.80;49.80
36652;DHT22;53334;51.976;20.144;2023-05-07T01:30:20;23.80;49.90
36652;DHT22;53334;51.976;20.144;2023-05-07T01:32:58;23.80;49.80
36652;DHT22;53334;51.976;20.144;2023-05-07T01:35:38;23.80;49.70
36652;DHT22;53334;51.976;20.144;2023-05-07T01:38:13;23.80;49.60
36652;DHT22;53334;51.976;20.144;2023-05-07T01:40:46;23.80;49.50
36652;DHT22;53334;51.976;20.144;2023-05-07T01:43:20;23.80;49.40
36652;DHT22;53334;51.976;20.144;2023-05-07T01:45:54;23.80;49.30
36652;DHT22;53334;51.976;20.144;2023-05-07T01:48:28;23.80;49.40
36652;DHT22;53334;51.976;20.144;2023-05-07T01:51:02;23.80;49.40
36652;DHT22;53334;51.976;20.144;2023-05-07T01:53:38;23.80;49.40
36652;DHT22;53334;51.976;20.144;2023-05-07T01:56:12;23.80;49.30
36652;DHT22;53334;51.976;20.144;2023-05-07T01:58:47;23.80;49.40
36652;DHT22;53334;51.976;20.144;2023-05-07T02:01:20;23.80;49.40
36652;DHT22;53334;51.976;20.144;2023-05-07T02:03:54;23.80;49.50
36652;DHT22;53334;51.976;20.144;2023-05-07T02:06:31;23.80;49.30
36652;DHT22;53334;51.976;20.144;2023-05-07T02:09:11;23.80;49.50
36652;DHT22;53334;51.976;20.144;2023-05-07T02:11:50;23.80;49.30
36652;DHT22;53334;51.976;20.144;2023-05-07T02:14:25;23.80;49.30
36652;DHT22;53334;51.976;20.144;2023-05-07T02:16:58;23.80;49.30
36652;DHT22;53334;51.976;20.144;2023-05-07T02:19:32;23.80;49.20
36652;DHT22;53334;51.976;20.144;2023-05-07T02:22:05;23.80;49.30
36652;DHT22;53334;51.976;20.144;2023-05-07T02:24:40;23.80;49.40
36652;DHT22;53334;51.976;20.144;2023-05-07T02:27:13;23.80;49.30
36652;DHT22;53334;51.976;20.144;2023-05-07T02:29:48;23.80;49.20
36652;DHT22;53334;51.976;20.144;2023-05-07T02:32:21;23.80;49.10
36652;DHT22;53334;51.976;20.144;2023-05-07T02:34:55;23.80;49.00
36652;DHT22;53334;51.976;20.144;2023-05-07T02:37:28;23.80;48.90
36652;DHT22;53334;51.976;20.144;2023-05-07T02:40:03;23.80;48.90
36652;DHT22;53334;51.976;20.144;2023-05-07T02:42:37;23.80;48.80
36652;DHT22;53334;51.976;20.144;2023-05-07T02:45:10;23.80;49.40
36652;DHT22;53334;51.976;20.144;2023-05-07T02:47:44;23.80;49.00
36652;DHT22;53334;51.976;20.144;2023-05-07T02:50:17;23.80;48.90
36652;DHT22;53334;51.976;20.144;2023-05-07T02:52:51;23.80;48.90
36652;DHT22;53334;51.976;20.144;2023-05-07T02:55:25;23.80;48.90
36652;DHT22;53334;51.976;20.144;2023-05-07T02:57:58;23.80;49.00
36652;DHT22;53334;51.976;20.144;2023-05-07T03:00:32;23.80;48.90
36652;DHT22;53334;51.976;20.144;2023-05-07T03:03:41;23.80;48.80
36652;DHT22;53334;51.976;20.144;2023-05-07T03:06:14;23.80;48.70
36652;DHT22;53334;51.976;20.144;2023-05-07T03:08:47;23.80;48.80
36652;DHT22;53334;51.976;20.144;2023-05-07T03:11:22;23.80;49.30
36652;DHT22;53334;51.976;20.144;2023-05-07T03:13:55;23.80;48.60
36652;DHT22;53334;51.976;20.144;2023-05-07T03:16:28;23.80;48.50
36652;DHT22;53334;51.976;20.144;2023-05-07T03:19:02;23.80;48.40
36652;DHT22;53334;51.976;20.144;2023-05-07T03:21:35;23.80;48.40
36652;DHT22;53334;51.976;20.144;2023-05-07T03:24:08;23.80;48.40
36652;DHT22;53334;51.976;20.144;2023-05-07T03:26:43;23.80;48.40
36652;DHT22;53334;51.976;20.144;2023-05-07T03:29:16;23.80;48.30
36652;DHT22;53334;51.976;20.144;2023-05-07T03:31:50;23.80;48.40
36652;DHT22;53334;51.976;20.144;2023-05-07T03:34:23;23.80;48.40
36652;DHT22;53334;51.976;20.144;2023-05-07T03:36:57;23.80;48.40
36652;DHT22;53334;51.976;20.144;2023-05-07T03:39:30;23.80;48.90
36652;DHT22;53334;51.976;20.144;2023-05-07T03:42:05;23.80;48.30
36652;DHT22;53334;51.976;20.144;2023-05-07T03:44:39;23.80;48.20
36652;DHT22;53334;51.976;20.144;2023-05-07T03:47:12;23.80;48.40
36652;DHT22;53334;51.976;20.144;2023-05-07T03:49:46;23.80;48.30
36652;DHT22;53334;51.976;20.144;2023-05-07T03:52:20;23.80;48.30
36652;DHT22;53334;51.976;20.144;2023-05-07T03:55:00;23.80;48.10
36652;DHT22;53334;51.976;20.144;2023-05-07T03:57:37;23.80;48.20
36652;DHT22;53334;51.976;20.144;2023-05-07T04:00:12;23.80;48.20
36652;DHT22;53334;51.976;20.144;2023-05-07T04:02:51;23.80;48.00
36652;DHT22;53334;51.976;20.144;2023-05-07T04:05:30;23.70;48.00
36652;DHT22;53334;51.976;20.144;2023-05-07T04:08:07;23.80;47.90
36652;DHT22;53334;51.976;20.144;2023-05-07T04:10:44;23.80;48.00
36652;DHT22;53334;51.976;20.144;2023-05-07T04:13:19;23.70;48.10
36652;DHT22;53334;51.976;20.144;2023-05-07T04:15:54;23.80;48.10
36652;DHT22;53334;51.976;20.144;2023-05-07T04:18:29;23.80;48.00
36652;DHT22;53334;51.976;20.144;2023-05-07T04:21:02;23.70;47.90
36652;DHT22;53334;51.976;20.144;2023-05-07T04:23:36;23.80;48.00
36652;DHT22;53334;51.976;20.144;2023-05-07T04:26:13;23.70;48.00
36652;DHT22;53334;51.976;20.144;2023-05-07T04:28:50;23.80;48.00
36652;DHT22;53334;51.976;20.144;2023-05-07T04:31:24;23.80;47.90
36652;DHT22;53334;51.976;20.144;2023-05-07T04:33:59;23.80;48.10
36652;DHT22;53334;51.976;20.144;2023-05-07T04:36:32;23.80;48.10
36652;DHT22;53334;51.976;20.144;2023-05-07T04:39:10;23.70;47.90
36652;DHT22;53334;51.976;20.144;2023-05-07T04:41:47;23.80;48.00
36652;DHT22;53334;51.976;20.144;2023-05-07T04:44:22;23.80;47.90
36652;DHT22;53334;51.976;20.144;2023-05-07T04:46:55;23.80;47.80
36652;DHT22;53334;51.976;20.144;2023-05-07T04:49:30;23.70;47.80
36652;DHT22;53334;51.976;20.144;2023-05-07T04:52:04;23.70;47.80
36652;DHT22;53334;51.976;20.144;2023-05-07T04:54:37;23.80;47.80
36652;DHT22;53334;51.976;20.144;2023-05-07T04:57:12;23.80;48.00
36652;DHT22;53334;51.976;20.144;2023-05-07T04:59:47;23.80;48.00
36652;DHT22;53334;51.976;20.144;2023-05-07T05:02:20;23.80;48.00
36652;DHT22;53334;51.976;20.144;2023-05-07T05:04:54;23.80;47.90
36652;DHT22;53334;51.976;20.144;2023-05-07T05:07:27;23.80;48.00
36652;DHT22;53334;51.976;20.144;2023-05-07T05:10:01;23.70;47.80
36652;DHT22;53334;51.976;20.144;2023-05-07T05:12:38;23.70;47.80
36652;DHT22;53334;51.976;20.144;2023-05-07T05:15:13;23.70;47.90
36652;DHT22;53334;51.976;20.144;2023-05-07T05:17:47;23.70;47.90
36652;DHT22;53334;51.976;20.144;2023-05-07T05:20:20;23.70;47.80
36652;DHT22;53334;51.976;20.144;2023-05-07T05:22:54;23.70;47.70
36652;DHT22;53334;51.976;20.144;2023-05-07T05:25:27;23.70;47.70
36652;DHT22;53334;51.976;20.144;2023-05-07T05:28:01;23.70;47.60
36652;DHT22;53334;51.976;20.144;2023-05-07T05:30:39;23.70;47.50
36652;DHT22;53334;51.976;20.144;2023-05-07T05:33:13;23.70;47.50
36652;DHT22;53334;51.976;20.144;2023-05-07T05:35:47;23.80;47.50
36652;DHT22;53334;51.976;20.144;2023-05-07T05:38:20;23.70;47.60
36652;DHT22;53334;51.976;20.144;2023-05-07T05:40:54;23.70;47.60
36652;DHT22;53334;51.976;20.144;2023-05-07T05:43:28;23.80;47.60
36652;DHT22;53334;51.976;20.144;2023-05-07T05:46:03;23.80;47.60
36652;DHT22;53334;51.976;20.144;2023-05-07T05:48:38;23.80;48.30
36652;DHT22;53334;51.976;20.144;2023-05-07T05:51:12;23.70;47.70
36652;DHT22;53334;51.976;20.144;2023-05-07T05:53:46;23.70;47.60
36652;DHT22;53334;51.976;20.144;2023-05-07T05:56:19;23.70;47.50
36652;DHT22;53334;51.976;20.144;2023-05-07T05:58:53;23.80;47.70
36652;DHT22;53334;51.976;20.144;2023-05-07T06:01:27;23.70;47.60
36652;DHT22;53334;51.976;20.144;2023-05-07T06:04:05;23.70;47.60
36652;DHT22;53334;51.976;20.144;2023-05-07T06:06:38;23.70;47.50
36652;DHT22;53334;51.976;20.144;2023-05-07T06:09:12;23.70;47.50
36652;DHT22;53334;51.976;20.144;2023-05-07T06:11:48;23.70;47.50
36652;DHT22;53334;51.976;20.144;2023-05-07T06:14:22;23.70;47.50
36652;DHT22;53334;51.976;20.144;2023-05-07T06:16:57;23.70;47.50
36652;DHT22;53334;51.976;20.144;2023-05-07T06:19:31;23.70;47.50
36652;DHT22;53334;51.976;20.144;2023-05-07T06:22:05;23.70;47.40
36652;DHT22;53334;51.976;20.144;2023-05-07T06:24:39;23.70;47.30
36652;DHT22;53334;51.976;20.144;2023-05-07T06:27:13;23.70;47.40
36652;DHT22;53334;51.976;20.144;2023-05-07T06:29:47;23.70;47.30
36652;DHT22;53334;51.976;20.144;2023-05-07T06:32:23;23.70;47.40
36652;DHT22;53334;51.976;20.144;2023-05-07T06:34:57;23.70;47.40
36652;DHT22;53334;51.976;20.144;2023-05-07T06:37:31;23.80;47.30
36652;DHT22;53334;51.976;20.144;2023-05-07T06:40:08;23.80;47.40
36652;DHT22;53334;51.976;20.144;2023-05-07T06:42:44;23.70;47.20
36652;DHT22;53334;51.976;20.144;2023-05-07T06:45:33;23.80;47.30
36652;DHT22;53334;51.976;20.144;2023-05-07T06:48:08;23.70;47.40
36652;DHT22;53334;51.976;20.144;2023-05-07T06:50:51;23.70;47.40
36652;DHT22;53334;51.976;20.144;2023-05-07T06:53:25;23.80;47.50
36652;DHT22;53334;51.976;20.144;2023-05-07T06:56:00;23.80;47.50
36652;DHT22;53334;51.976;20.144;2023-05-07T06:58:34;23.70;47.50
36652;DHT22;53334;51.976;20.144;2023-05-07T07:01:07;23.80;48.90
36652;DHT22;53334;51.976;20.144;2023-05-07T07:03:43;23.80;49.30
36652;DHT22;53334;51.976;20.144;2023-05-07T07:06:16;23.80;49.00
36652;DHT22;53334;51.976;20.144;2023-05-07T07:08:50;23.70;49.30
36652;DHT22;53334;51.976;20.144;2023-05-07T07:11:24;23.80;49.40
36652;DHT22;53334;51.976;20.144;2023-05-07T07:13:57;23.70;49.50
36652;DHT22;53334;51.976;20.144;2023-05-07T07:16:31;23.70;48.90
36652;DHT22;53334;51.976;20.144;2023-05-07T07:19:05;23.80;48.90
36652;DHT22;53334;51.976;20.144;2023-05-07T07:21:39;23.80;49.10
36652;DHT22;53334;51.976;20.144;2023-05-07T07:24:13;23.80;49.40
36652;DHT22;53334;51.976;20.144;2023-05-07T07:26:52;23.70;49.40
36652;DHT22;53334;51.976;20.144;2023-05-07T07:29:28;23.80;49.50
36652;DHT22;53334;51.976;20.144;2023-05-07T07:32:02;23.80;50.00
36652;DHT22;53334;51.976;20.144;2023-05-07T07:34:37;23.80;50.20
36652;DHT22;53334;51.976;20.144;2023-05-07T07:37:11;23.80;50.20
36652;DHT22;53334;51.976;20.144;2023-05-07T07:39:44;23.80;50.50
36652;DHT22;53334;51.976;20.144;2023-05-07T07:42:20;23.80;50.60
36652;DHT22;53334;51.976;20.144;2023-05-07T07:44:53;23.80;50.60
36652;DHT22;53334;51.976;20.144;2023-05-07T07:47:28;23.90;50.50
36652;DHT22;53334;51.976;20.144;2023-05-07T07:50:03;23.80;50.20
36652;DHT22;53334;51.976;20.144;2023-05-07T07:52:37;23.80;50.20
36652;DHT22;53334;51.976;20.144;2023-05-07T07:55:12;23.80;50.30
36652;DHT22;53334;51.976;20.144;2023-05-07T07:57:45;23.80;50.30
36652;DHT22;53334;51.976;20.144;2023-05-07T08:00:19;23.80;50.30
36652;DHT22;53334;51.976;20.144;2023-05-07T08:02:57;23.90;50.30
36652;DHT22;53334;51.976;20.144;2023-05-07T08:05:37;23.80;50.30
36652;DHT22;53334;51.976;20.144;2023-05-07T08:08:11;23.80;51.00
36652;DHT22;53334;51.976;20.144;2023-05-07T08:10:46;23.80;50.50
36652;DHT22;53334;51.976;20.144;2023-05-07T08:13:29;23.80;50.60
36652;DHT22;53334;51.976;20.144;2023-05-07T08:16:04;23.80;50.60
36652;DHT22;53334;51.976;20.144;2023-05-07T08:18:39;23.90;50.70
36652;DHT22;53334;51.976;20.144;2023-05-07T08:21:14;23.80;50.70
36652;DHT22;53334;51.976;20.144;2023-05-07T08:23:47;23.90;50.80
36652;DHT22;53334;51.976;20.144;2023-05-07T08:26:21;23.90;50.60
36652;DHT22;53334;51.976;20.144;2023-05-07T08:28:55;23.90;50.50
36652;DHT22;53334;51.976;20.144;2023-05-07T08:31:29;23.90;50.60
36652;DHT22;53334;51.976;20.144;2023-05-07T08:34:03;23.90;50.90
36652;DHT22;53334;51.976;20.144;2023-05-07T08:36:44;23.90;50.90
36652;DHT22;53334;51.976;20.144;2023-05-07T08:39:20;23.90;48.90
36652;DHT22;53334;51.976;20.144;2023-05-07T08:41:57;23.90;41.50
36652;DHT22;53334;51.976;20.144;2023-05-07T08:44:34;23.70;38.70
36652;DHT22;53334;51.976;20.144;2023-05-07T08:47:08;23.60;39.30
36652;DHT22;53334;51.976;20.144;2023-05-07T08:49:42;23.60;40.60
36652;DHT22;53334;51.976;20.144;2023-05-07T08:52:17;23.50;41.10
36652;DHT22;53334;51.976;20.144;2023-05-07T08:54:52;23.50;42.00
36652;DHT22;53334;51.976;20.144;2023-05-07T08:57:26;23.50;42.00
36652;DHT22;53334;51.976;20.144;2023-05-07T09:00:00;23.50;41.40
36652;DHT22;53334;51.976;20.144;2023-05-07T09:02:34;23.50;41.50
36652;DHT22;53334;51.976;20.144;2023-05-07T09:05:09;23.50;41.50
36652;DHT22;53334;51.976;20.144;2023-05-07T09:07:45;23.50;41.60
36652;DHT22;53334;51.976;20.144;2023-05-07T09:10:20;23.50;41.60
36652;DHT22;53334;51.976;20.144;2023-05-07T09:12:55;23.50;41.70
36652;DHT22;53334;51.976;20.144;2023-05-07T09:15:29;23.50;41.70
36652;DHT22;53334;51.976;20.144;2023-05-07T09:18:02;23.50;41.70
36652;DHT22;53334;51.976;20.144;2023-05-07T09:20:39;23.60;41.90
36652;DHT22;53334;51.976;20.144;2023-05-07T09:23:15;23.60;42.10
36652;DHT22;53334;51.976;20.144;2023-05-07T09:25:49;23.60;42.40
36652;DHT22;53334;51.976;20.144;2023-05-07T09:28:29;23.60;43.00
36652;DHT22;53334;51.976;20.144;2023-05-07T09:31:05;23.60;43.30
36652;DHT22;53334;51.976;20.144;2023-05-07T09:33:39;23.60;43.70
36652;DHT22;53334;51.976;20.144;2023-05-07T09:36:15;23.60;44.00
36652;DHT22;53334;51.976;20.144;2023-05-07T09:38:50;23.60;44.30
36652;DHT22;53334;51.976;20.144;2023-05-07T09:41:24;23.60;44.70
36652;DHT22;53334;51.976;20.144;2023-05-07T09:44:08;23.60;45.30
36652;DHT22;53334;51.976;20.144;2023-05-07T09:46:51;23.60;45.70
36652;DHT22;53334;51.976;20.144;2023-05-07T09:49:34;23.60;46.40
36652;DHT22;53334;51.976;20.144;2023-05-07T09:52:13;23.70;46.70
36652;DHT22;53334;51.976;20.144;2023-05-07T09:54:54;23.70;46.90
36652;DHT22;53334;51.976;20.144;2023-05-07T09:57:32;23.70;47.00
36652;DHT22;53334;51.976;20.144;2023-05-07T10:00:11;23.70;46.90
36652;DHT22;53334;51.976;20.144;2023-05-07T10:02:56;23.70;47.20
36652;DHT22;53334;51.976;20.144;2023-05-07T10:05:40;23.70;47.00
36652;DHT22;53334;51.976;20.144;2023-05-07T10:08:14;23.70;47.10
36652;DHT22;53334;51.976;20.144;2023-05-07T10:10:53;23.70;47.40
36652;DHT22;53334;51.976;20.144;2023-05-07T10:13:29;23.70;47.40
36652;DHT22;53334;51.976;20.144;2023-05-07T10:16:04;23.70;47.40
36652;DHT22;53334;51.976;20.144;2023-05-07T10:18:44;23.70;47.40
36652;DHT22;53334;51.976;20.144;2023-05-07T10:21:23;23.70;47.40
36652;DHT22;53334;51.976;20.144;2023-05-07T10:24:04;23.70;47.40
36652;DHT22;53334;51.976;20.144;2023-05-07T10:26:44;23.70;47.50
36652;DHT22;53334;51.976;20.144;2023-05-07T10:29:29;23.70;47.50
36652;DHT22;53334;51.976;20.144;2023-05-07T10:32:30;23.70;48.10
36652;DHT22;53334;51.976;20.144;2023-05-07T10:35:10;23.70;47.80
36652;DHT22;53334;51.976;20.144;2023-05-07T10:37:47;23.70;47.60
36652;DHT22;53334;51.976;20.144;2023-05-07T10:40:22;23.80;47.70
36652;DHT22;53334;51.976;20.144;2023-05-07T10:42:59;23.80;47.60
36652;DHT22;53334;51.976;20.144;2023-05-07T10:45:37;23.80;47.50
36652;DHT22;53334;51.976;20.144;2023-05-07T10:48:11;23.80;47.40
36652;DHT22;53334;51.976;20.144;2023-05-07T10:51:20;23.80;47.40
36652;DHT22;53334;51.976;20.144;2023-05-07T10:54:21;23.80;48.20
36652;DHT22;53334;51.976;20.144;2023-05-07T10:57:34;23.80;49.10
36652;DHT22;53334;51.976;20.144;2023-05-07T11:00:44;23.80;49.10
36652;DHT22;53334;51.976;20.144;2023-05-07T11:03:26;23.80;49.20
36652;DHT22;53334;51.976;20.144;2023-05-07T11:06:11;23.80;48.90
36652;DHT22;53334;51.976;20.144;2023-05-07T11:08:56;23.80;48.90
36652;DHT22;53334;51.976;20.144;2023-05-07T11:11:46;23.90;48.80
36652;DHT22;53334;51.976;20.144;2023-05-07T11:14:43;23.80;48.60
36652;DHT22;53334;51.976;20.144;2023-05-07T11:20:52;23.80;48.20
36652;DHT22;53334;51.976;20.144;2023-05-07T11:24:01;23.80;48.20
36652;DHT22;53334;51.976;20.144;2023-05-07T11:26:44;23.80;48.00
36652;DHT22;53334;51.976;20.144;2023-05-07T11:29:19;23.80;48.00
36652;DHT22;53334;51.976;20.144;2023-05-07T11:32:00;23.80;47.90
36652;DHT22;53334;51.976;20.144;2023-05-07T11:34:40;23.80;47.80
36652;DHT22;53334;51.976;20.144;2023-05-07T11:37:19;23.80;47.70
36652;DHT22;53334;51.976;20.144;2023-05-07T11:40:04;23.80;47.70
36652;DHT22;53334;51.976;20.144;2023-05-07T11:42:39;23.80;47.60
36652;DHT22;53334;51.976;20.144;2023-05-07T11:45:23;23.80;47.40
36652;DHT22;53334;51.976;20.144;2023-05-07T11:47:56;23.80;47.40
36652;DHT22;53334;51.976;20.144;2023-05-07T11:50:30;23.80;47.30
36652;DHT22;53334;51.976;20.144;2023-05-07T11:53:08;23.80;47.20
36652;DHT22;53334;51.976;20.144;2023-05-07T11:55:45;23.80;47.30
36652;DHT22;53334;51.976;20.144;2023-05-07T11:58:22;23.80;47.00
36652;DHT22;53334;51.976;20.144;2023-05-07T12:00:55;23.80;47.00
36652;DHT22;53334;51.976;20.144;2023-05-07T12:03:29;23.80;46.90
36652;DHT22;53334;51.976;20.144;2023-05-07T12:06:07;23.70;46.70
36652;DHT22;53334;51.976;20.144;2023-05-07T12:08:42;23.80;46.60
36652;DHT22;53334;51.976;20.144;2023-05-07T12:11:23;23.70;46.40
36652;DHT22;53334;51.976;20.144;2023-05-07T12:13:57;23.70;46.40
36652;DHT22;53334;51.976;20.144;2023-05-07T12:16:31;23.70;46.30
36652;DHT22;53334;51.976;20.144;2023-05-07T12:19:04;23.80;46.20
36652;DHT22;53334;51.976;20.144;2023-05-07T12:21:41;23.70;46.50
36652;DHT22;53334;51.976;20.144;2023-05-07T12:24:15;23.70;46.30
36652;DHT22;53334;51.976;20.144;2023-05-07T12:26:53;23.70;46.20
36652;DHT22;53334;51.976;20.144;2023-05-07T12:29:26;23.70;46.50
36652;DHT22;53334;51.976;20.144;2023-05-07T12:31:59;23.70;46.60
36652;DHT22;53334;51.976;20.144;2023-05-07T12:34:33;23.70;46.50
36652;DHT22;53334;51.976;20.144;2023-05-07T12:37:07;23.70;46.80
36652;DHT22;53334;51.976;20.144;2023-05-07T12:39:48;23.70;47.00
36652;DHT22;53334;51.976;20.144;2023-05-07T12:42:21;23.70;47.20
36652;DHT22;53334;51.976;20.144;2023-05-07T12:44:57;23.70;47.50
36652;DHT22;53334;51.976;20.144;2023-05-07T12:47:31;23.70;47.70
36652;DHT22;53334;51.976;20.144;2023-05-07T12:50:05;23.70;47.90
36652;DHT22;53334;51.976;20.144;2023-05-07T12:52:39;23.70;48.10
36652;DHT22;53334;51.976;20.144;2023-05-07T12:55:14;23.80;48.30
36652;DHT22;53334;51.976;20.144;2023-05-07T12:57:49;23.80;48.50
36652;DHT22;53334;51.976;20.144;2023-05-07T13:00:34;23.80;48.60
36652;DHT22;53334;51.976;20.144;2023-05-07T13:03:07;23.80;48.70
36652;DHT22;53334;51.976;20.144;2023-05-07T13:05:40;23.80;48.70
36652;DHT22;53334;51.976;20.144;2023-05-07T13:08:23;23.80;49.00
36652;DHT22;53334;51.976;20.144;2023-05-07T13:10:59;23.80;49.20
36652;DHT22;53334;51.976;20.144;2023-05-07T13:13:36;23.80;49.20
36652;DHT22;53334;51.976;20.144;2023-05-07T13:16:11;23.80;49.30
36652;DHT22;53334;51.976;20.144;2023-05-07T13:18:44;23.80;49.50
36652;DHT22;53334;51.976;20.144;2023-05-07T13:21:18;23.90;49.70
36652;DHT22;53334;51.976;20.144;2023-05-07T13:23:51;23.80;49.70
36652;DHT22;53334;51.976;20.144;2023-05-07T13:26:26;23.80;49.70
36652;DHT22;53334;51.976;20.144;2023-05-07T13:28:59;23.80;49.80
36652;DHT22;53334;51.976;20.144;2023-05-07T13:31:33;23.90;50.60
36652;DHT22;53334;51.976;20.144;2023-05-07T13:34:07;23.90;50.10
36652;DHT22;53334;51.976;20.144;2023-05-07T13:36:41;23.90;50.50
36652;DHT22;53334;51.976;20.144;2023-05-07T13:39:14;23.90;50.60
36652;DHT22;53334;51.976;20.144;2023-05-07T13:41:48;23.90;50.70
36652;DHT22;53334;51.976;20.144;2023-05-07T13:44:22;23.90;50.90
36652;DHT22;53334;51.976;20.144;2023-05-07T13:46:55;23.90;50.90
36652;DHT22;53334;51.976;20.144;2023-05-07T13:49:28;23.90;50.90
36652;DHT22;53334;51.976;20.144;2023-05-07T13:52:02;23.90;50.80
36652;DHT22;53334;51.976;20.144;2023-05-07T13:54:35;23.90;50.60
36652;DHT22;53334;51.976;20.144;2023-05-07T13:57:10;23.90;50.50
36652;DHT22;53334;51.976;20.144;2023-05-07T13:59:43;23.90;50.50
36652;DHT22;53334;51.976;20.144;2023-05-07T14:02:16;23.90;50.50
36652;DHT22;53334;51.976;20.144;2023-05-07T14:04:49;24.00;50.60
36652;DHT22;53334;51.976;20.144;2023-05-07T14:07:23;24.00;50.60
36652;DHT22;53334;51.976;20.144;2023-05-07T14:09:56;24.00;50.50
36652;DHT22;53334;51.976;20.144;2023-05-07T14:12:31;24.00;50.40
36652;DHT22;53334;51.976;20.144;2023-05-07T14:15:05;24.00;50.30
36652;DHT22;53334;51.976;20.144;2023-05-07T14:17:38;24.00;50.10
36652;DHT22;53334;51.976;20.144;2023-05-07T14:20:12;24.00;50.00
36652;DHT22;53334;51.976;20.144;2023-05-07T14:22:46;24.00;49.90
36652;DHT22;53334;51.976;20.144;2023-05-07T14:25:19;24.00;49.90
36652;DHT22;53334;51.976;20.144;2023-05-07T14:27:57;24.00;49.70
36652;DHT22;53334;51.976;20.144;2023-05-07T14:30:30;24.00;49.50
36652;DHT22;53334;51.976;20.144;2023-05-07T14:33:04;24.00;49.50
36652;DHT22;53334;51.976;20.144;2023-05-07T14:35:37;24.00;49.50
36652;DHT22;53334;51.976;20.144;2023-05-07T14:38:10;24.00;50.50
36652;DHT22;53334;51.976;20.144;2023-05-07T14:40:45;24.00;50.70
36652;DHT22;53334;51.976;20.144;2023-05-07T14:43:19;24.00;50.90
36652;DHT22;53334;51.976;20.144;2023-05-07T14:45:54;24.00;51.10
36652;DHT22;53334;51.976;20.144;2023-05-07T14:48:27;24.00;51.10
36652;DHT22;53334;51.976;20.144;2023-05-07T14:51:01;24.10;50.90
36652;DHT22;53334;51.976;20.144;2023-05-07T14:53:34;24.10;51.00
36652;DHT22;53334;51.976;20.144;2023-05-07T14:56:07;24.10;50.70
36652;DHT22;53334;51.976;20.144;2023-05-07T14:58:42;24.10;50.70
36652;DHT22;53334;51.976;20.144;2023-05-07T15:01:16;24.10;50.80
36652;DHT22;53334;51.976;20.144;2023-05-07T15:03:49;24.10;51.60
36652;DHT22;53334;51.976;20.144;2023-05-07T15:06:23;24.10;50.70
36652;DHT22;53334;51.976;20.144;2023-05-07T15:08:57;24.10;50.30
36652;DHT22;53334;51.976;20.144;2023-05-07T15:11:31;24.10;50.30
36652;DHT22;53334;51.976;20.144;2023-05-07T15:14:05;24.10;50.10
36652;DHT22;53334;51.976;20.144;2023-05-07T15:16:39;24.10;49.90
36652;DHT22;53334;51.976;20.144;2023-05-07T15:19:12;24.10;49.70
36652;DHT22;53334;51.976;20.144;2023-05-07T15:21:46;24.10;49.70
36652;DHT22;53334;51.976;20.144;2023-05-07T15:24:20;24.10;49.80
36652;DHT22;53334;51.976;20.144;2023-05-07T15:26:53;24.10;49.60
36652;DHT22;53334;51.976;20.144;2023-05-07T15:29:28;24.10;49.40
36652;DHT22;53334;51.976;20.144;2023-05-07T15:32:03;24.10;49.20
36652;DHT22;53334;51.976;20.144;2023-05-07T15:34:40;24.00;49.60
36652;DHT22;53334;51.976;20.144;2023-05-07T15:37:16;24.00;51.50
36652;DHT22;53334;51.976;20.144;2023-05-07T15:39:52;24.00;52.70
36652;DHT22;53334;51.976;20.144;2023-05-07T15:42:26;24.10;53.00
36652;DHT22;53334;51.976;20.144;2023-05-07T15:45:01;24.10;53.80
36652;DHT22;53334;51.976;20.144;2023-05-07T15:47:34;24.10;55.40
36652;DHT22;53334;51.976;20.144;2023-05-07T15:50:09;24.10;55.60
36652;DHT22;53334;51.976;20.144;2023-05-07T15:52:42;24.10;56.10
36652;DHT22;53334;51.976;20.144;2023-05-07T15:55:18;24.10;55.10
36652;DHT22;53334;51.976;20.144;2023-05-07T15:57:51;24.10;55.30
36652;DHT22;53334;51.976;20.144;2023-05-07T16:00:27;24.10;56.20
36652;DHT22;53334;51.976;20.144;2023-05-07T16:03:01;24.10;57.50
36652;DHT22;53334;51.976;20.144;2023-05-07T16:05:34;24.10;57.90
36652;DHT22;53334;51.976;20.144;2023-05-07T16:08:08;24.10;57.60
36652;DHT22;53334;51.976;20.144;2023-05-07T16:10:42;24.10;56.90